Time,TemperatureF,DewpointF,PressureIn,WindDirection,WindDirectionDegrees,WindSpeedMPH,WindSpeedGustMPH,Humidity,HourlyPrecipIn,Conditions,Clouds,dailyrainin,SoftwareType,DateUTC
2013-07-18 00:17:00,70.5,66.0,30.23,NNW,335,0.0,-999.0,84,-99.99,,,0.00,weatherlink.com 1.10,2013-07-18 04:17:00,
2013-07-18 00:32:00,70.2,66.0,30.23,NNW,335,0.0,-999.0,85,-99.99,,,0.00,weatherlink.com 1.10,2013-07-18 04:32:00,
2013-07-18 00:47:00,70.1,66.0,30.23,NNW,335,0.0,-999.0,86,-99.99,,,0.00,weatherlink.com 1.10,2013-07-18 04:47:00,
2013-07-18 01:02:00,70.0,66.0,30.22,NNW,335,0.0,-999.0,86,-99.99,,,0.00,weatherlink.com 1.10,2013-07-18 05:02:00,
2013-07-18 01:17:00,70.3,66.0,30.23,NNW,335,0.0,-999.0,86,-99.99,,,0.00,weatherlink.com 1.10,2013-07-18 05:17:00,
2013-07-18 01:32:00,69.7,65.0,30.23,NNW,335,0.0,-999.0,86,-99.99,,,0.00,weatherlink.com 1.10,2013-07-18 05:32:00,
2013-07-18 01:47:00,69.7,65.0,30.23,WNW,282,0.0,-999.0,86,-99.99,,,0.00,weatherlink.com 1.10,2013-07-18 05:47:00,
2013-07-18 02:03:00,69.8,66.0,30.23,West,274,0.0,-999.0,86,-99.99,,,0.00,weatherlink.com 1.10,2013-07-18 06:03:00,
2013-07-18 02:18:00,70.1,66.0,30.22,West,276,0.0,-999.0,87,-99.99,,,0.00,weatherlink.com 1.10,2013-07-18 06:18:00,
2013-07-18 02:33:00,69.9,66.0,30.22,West,276,0.0,-999.0,86,-99.99,,,0.00,weatherlink.com 1.10,2013-07-18 06:33:00,
2013-07-18 02:48:00,69.7,65.0,30.21,West,276,0.0,-999.0,86,-99.99,,,0.00,weatherlink.com 1.10,2013-07-18 06:48:00,
2013-07-18 03:03:00,69.8,66.0,30.21,West,276,0.0,-999.0,86,-99.99,,,0.00,weatherlink.com 1.10,2013-07-18 07:03:00,
2013-07-18 03:18:00,69.3,65.0,30.21,West,276,0.0,-999.0,86,-99.99,,,0.00,weatherlink.com 1.10,2013-07-18 07:18:00,
2013-07-18 03:33:00,69.3,65.0,30.21,West,276,0.0,-999.0,86,-99.99,,,0.00,weatherlink.com 1.10,2013-07-18 07:33:00,
2013-07-18 03:48:00,69.3,65.0,30.20,West,276,0.0,-999.0,86,-99.99,,,0.00,weatherlink.com 1.10,2013-07-18 07:48:00,
2013-07-18 04:03:00,69.0,65.0,30.20,West,276,0.0,-999.0,86,-99.99,,,0.00,weatherlink.com 1.10,2013-07-18 08:03:00,
2013-07-18 04:18:00,68.7,64.0,30.20,West,276,0.0,-999.0,86,-99.99,,,0.00,weatherlink.com 1.10,2013-07-18 08:18:00,
2013-07-18 04:33:00,68.3,64.0,30.20,West,276,0.0,-999.0,86,-99.99,,,0.00,weatherlink.com 1.10,2013-07-18 08:33:00,
2013-07-18 04:49:00,68.2,64.0,30.20,West,276,0.0,-999.0,86,-99.99,,,0.00,weatherlink.com 1.10,2013-07-18 08:49:00,
2013-07-18 05:04:00,68.2,64.0,30.20,West,276,0.0,-999.0,87,-99.99,,,0.00,weatherlink.com 1.10,2013-07-18 09:04:00,
2013-07-18 05:19:00,68.6,65.0,30.20,West,276,0.0,-999.0,87,-99.99,,,0.00,weatherlink.com 1.10,2013-07-18 09:19:00,
2013-07-18 05:34:00,68.6,65.0,30.20,West,276,0.0,-999.0,87,-99.99,,,0.00,weatherlink.com 1.10,2013-07-18 09:34:00,
2013-07-18 05:49:00,68.6,65.0,30.20,West,276,0.0,-999.0,87,-99.99,,,0.00,weatherlink.com 1.10,2013-07-18 09:49:00,
2013-07-18 06:04:00,68.5,65.0,30.20,West,276,0.0,-999.0,87,-99.99,,,0.00,weatherlink.com 1.10,2013-07-18 10:04:00,
2013-07-18 06:19:00,68.7,65.0,30.20,West,276,0.0,-999.0,87,-99.99,,,0.00,weatherlink.com 1.10,2013-07-18 10:19:00,
2013-07-18 06:34:00,68.7,65.0,30.21,West,276,0.0,-999.0,87,-99.99,,,0.00,weatherlink.com 1.10,2013-07-18 10:34:00,
2013-07-18 06:49:00,68.9,65.0,30.22,WNW,294,0.0,-999.0,87,-99.99,,,0.00,weatherlink.com 1.10,2013-07-18 10:49:00,
2013-07-18 07:04:00,68.8,65.0,30.22,WNW,294,0.0,-999.0,87,-99.99,,,0.00,weatherlink.com 1.10,2013-07-18 11:04:00,
2013-07-18 07:19:00,69.1,65.0,30.22,West,273,1.0,-999.0,87,-99.99,,,0.00,weatherlink.com 1.10,2013-07-18 11:19:00,
2013-07-18 07:34:00,69.3,65.0,30.22,WSW,242,0.0,-999.0,87,-99.99,,,0.00,weatherlink.com 1.10,2013-07-18 11:34:00,
2013-07-18 07:49:00,69.9,66.0,30.22,WSW,242,0.0,-999.0,87,-99.99,,,0.00,weatherlink.com 1.10,2013-07-18 11:49:00,
2013-07-18 08:04:00,70.4,66.0,30.22,NW,326,0.0,-999.0,87,-99.99,,,0.00,weatherlink.com 1.10,2013-07-18 12:04:00,
2013-07-18 08:20:00,71.3,67.0,30.23,West,273,0.0,-999.0,86,-99.99,,,0.00,weatherlink.com 1.10,2013-07-18 12:20:00,
2013-07-18 08:35:00,73.1,68.0,30.23,NW,316,0.0,-999.0,83,-99.99,,,0.00,weatherlink.com 1.10,2013-07-18 12:35:00,
2013-07-18 08:50:00,73.9,68.0,30.23,South,187,0.0,-999.0,81,-99.99,,,0.00,weatherlink.com 1.10,2013-07-18 12:50:00,
2013-07-18 09:05:00,74.8,68.0,30.23,West,280,1.0,-999.0,78,-99.99,,,0.00,weatherlink.com 1.10,2013-07-18 13:05:00,
2013-07-18 09:20:00,75.6,68.0,30.23,NW,309,0.0,-999.0,77,-99.99,,,0.00,weatherlink.com 1.10,2013-07-18 13:20:00,
2013-07-18 09:35:00,76.6,69.0,30.23,North,4,0.0,-999.0,78,-99.99,,,0.00,weatherlink.com 1.10,2013-07-18 13:35:00,
2013-07-18 09:50:00,77.7,70.0,30.23,NW,315,1.0,-999.0,76,-99.99,,,0.00,weatherlink.com 1.10,2013-07-18 13:50:00,
2013-07-18 10:05:00,79.2,70.0,30.22,WNW,289,0.0,-999.0,74,-99.99,,,0.00,weatherlink.com 1.10,2013-07-18 14:05:00,
2013-07-18 10:21:00,80.5,70.0,30.22,WSW,238,0.0,-999.0,70,-99.99,,,0.00,weatherlink.com 1.10,2013-07-18 14:21:00,
2013-07-18 10:36:00,81.1,69.0,30.22,West,269,0.0,-999.0,66,-99.99,,,0.00,weatherlink.com 1.10,2013-07-18 14:36:00,
2013-07-18 11:06:00,82.5,69.0,30.22,WNW,291,0.0,-999.0,64,-99.99,,,0.00,weatherlink.com 1.10,2013-07-18 15:06:00,
2013-07-18 11:21:00,83.2,70.0,30.23,NW,315,0.0,-999.0,64,-99.99,,,0.00,weatherlink.com 1.10,2013-07-18 15:21:00,
2013-07-18 11:36:00,83.4,69.0,30.22,WNW,283,0.0,-999.0,63,-99.99,,,0.00,weatherlink.com 1.10,2013-07-18 15:36:00,
2013-07-18 11:51:00,84.1,71.0,30.22,NW,316,0.0,-999.0,65,-99.99,,,0.00,weatherlink.com 1.10,2013-07-18 15:51:00,
2013-07-18 12:06:00,84.2,71.0,30.22,WNW,283,0.0,-999.0,65,-99.99,,,0.00,weatherlink.com 1.10,2013-07-18 16:06:00,
2013-07-18 12:21:00,85.3,71.0,30.22,NW,316,0.0,-999.0,62,-99.99,,,0.00,weatherlink.com 1.10,2013-07-18 16:21:00,
2013-07-18 12:36:00,85.0,71.0,30.22,North,357,0.0,-999.0,63,-99.99,,,0.00,weatherlink.com 1.10,2013-07-18 16:36:00,
2013-07-18 12:52:00,85.2,71.0,30.21,NW,309,2.0,-999.0,63,-99.99,,,0.00,weatherlink.com 1.10,2013-07-18 16:52:00,
2013-07-18 13:07:00,86.3,69.0,30.21,WNW,286,0.0,-999.0,57,-99.99,,,0.00,weatherlink.com 1.10,2013-07-18 17:07:00,
2013-07-18 13:22:00,88.0,71.0,30.20,ENE,73,0.0,-999.0,57,-99.99,,,0.00,weatherlink.com 1.10,2013-07-18 17:22:00,
2013-07-18 13:37:00,87.6,70.0,30.20,NE,47,0.0,-999.0,57,-99.99,,,0.00,weatherlink.com 1.10,2013-07-18 17:37:00,
2013-07-18 13:52:00,88.0,67.0,30.20,ENE,63,0.0,-999.0,50,-99.99,,,0.00,weatherlink.com 1.10,2013-07-18 17:52:00,
2013-07-18 14:07:00,88.3,71.0,30.19,East,86,2.0,-999.0,56,-99.99,,,0.00,weatherlink.com 1.10,2013-07-18 18:07:00,
2013-07-18 14:22:00,87.5,71.0,30.18,East,81,0.0,-999.0,59,-99.99,,,0.00,weatherlink.com 1.10,2013-07-18 18:22:00,
2013-07-18 14:37:00,87.9,70.0,30.18,NE,52,1.0,-999.0,55,-99.99,,,0.00,weatherlink.com 1.10,2013-07-18 18:37:00,
2013-07-18 14:52:00,88.5,70.0,30.17,ESE,103,0.0,-999.0,54,-99.99,,,0.00,weatherlink.com 1.10,2013-07-18 18:52:00,
2013-07-18 15:07:00,85.1,72.0,30.17,ESE,107,0.0,-999.0,64,-99.99,,,0.00,weatherlink.com 1.10,2013-07-18 19:07:00,
2013-07-18 15:23:00,82.9,71.0,30.16,ESE,107,0.0,-999.0,68,-99.99,,,0.00,weatherlink.com 1.10,2013-07-18 19:23:00,
2013-07-18 15:38:00,88.2,72.0,30.15,ENE,69,0.0,-999.0,59,-99.99,,,0.00,weatherlink.com 1.10,2013-07-18 19:38:00,
2013-07-18 15:53:00,84.6,73.0,30.14,ENE,69,0.0,-999.0,68,-99.99,,,0.00,weatherlink.com 1.10,2013-07-18 19:53:00,
2013-07-18 16:08:00,84.5,71.0,30.15,ENE,70,0.0,-999.0,65,-99.99,,,0.00,weatherlink.com 1.10,2013-07-18 20:08:00,
2013-07-18 16:23:00,85.3,71.0,30.14,ESE,122,0.0,-999.0,63,-99.99,,,0.00,weatherlink.com 1.10,2013-07-18 20:23:00,
2013-07-18 16:38:00,84.5,72.0,30.13,ESE,122,0.0,-999.0,67,-99.99,,,0.00,weatherlink.com 1.10,2013-07-18 20:38:00,
2013-07-18 16:53:00,85.4,72.0,30.13,NE,41,4.0,-999.0,64,-99.99,,,0.00,weatherlink.com 1.10,2013-07-18 20:53:00,
2013-07-18 17:08:00,86.4,72.0,30.13,East,82,0.0,-999.0,62,-99.99,,,0.00,weatherlink.com 1.10,2013-07-18 21:08:00,
2013-07-18 17:23:00,84.2,73.0,30.12,East,82,0.0,-999.0,69,-99.99,,,0.00,weatherlink.com 1.10,2013-07-18 21:23:00,
2013-07-18 17:38:00,83.5,72.0,30.12,East,82,0.0,-999.0,69,-99.99,,,0.00,weatherlink.com 1.10,2013-07-18 21:38:00,
2013-07-18 17:53:00,84.8,72.0,30.12,East,82,0.0,-999.0,66,-99.99,,,0.00,weatherlink.com 1.10,2013-07-18 21:53:00,
2013-07-18 18:08:00,83.0,72.0,30.12,East,82,0.0,-999.0,69,-99.99,,,0.00,weatherlink.com 1.10,2013-07-18 22:08:00,
2013-07-18 18:24:00,81.2,73.0,30.12,East,82,0.0,-999.0,75,-99.99,,,0.00,weatherlink.com 1.10,2013-07-18 22:24:00,
2013-07-18 18:39:00,80.3,71.0,30.13,East,82,0.0,-999.0,74,-99.99,,,0.00,weatherlink.com 1.10,2013-07-18 22:39:00,
2013-07-18 18:54:00,79.4,71.0,30.13,East,82,0.0,-999.0,76,-99.99,,,0.00,weatherlink.com 1.10,2013-07-18 22:54:00,
2013-07-18 19:09:00,78.7,69.0,30.13,NE,37,0.0,-999.0,73,-99.99,,,0.00,weatherlink.com 1.10,2013-07-18 23:09:00,
2013-07-18 19:24:00,78.4,70.0,30.13,NE,37,0.0,-999.0,74,-99.99,,,0.00,weatherlink.com 1.10,2013-07-18 23:24:00,
2013-07-18 19:39:00,77.8,69.0,30.13,NE,37,0.0,-999.0,75,-99.99,,,0.00,weatherlink.com 1.10,2013-07-18 23:39:00,
2013-07-18 19:54:00,77.0,69.0,30.13,NE,37,0.0,-999.0,76,-99.99,,,0.00,weatherlink.com 1.10,2013-07-18 23:54:00,
2013-07-18 20:09:00,76.5,69.0,30.13,NE,37,0.0,-999.0,77,-99.99,,,0.00,weatherlink.com 1.10,2013-07-19 00:09:00,
2013-07-18 20:24:00,76.1,69.0,30.13,NE,37,0.0,-999.0,78,-99.99,,,0.00,weatherlink.com 1.10,2013-07-19 00:24:00,
2013-07-18 20:39:00,75.6,69.0,30.14,NE,37,0.0,-999.0,79,-99.99,,,0.00,weatherlink.com 1.10,2013-07-19 00:39:00,
2013-07-18 20:54:00,75.2,68.0,30.13,NE,37,0.0,-999.0,79,-99.99,,,0.00,weatherlink.com 1.10,2013-07-19 00:54:00,
2013-07-18 21:09:00,74.4,68.0,30.13,NE,37,0.0,-999.0,80,-99.99,,,0.00,weatherlink.com 1.10,2013-07-19 01:09:00,
2013-07-18 21:24:00,74.0,68.0,30.14,NE,37,0.0,-999.0,81,-99.99,,,0.00,weatherlink.com 1.10,2013-07-19 01:24:00,
2013-07-18 21:39:00,74.0,68.0,30.15,NE,37,0.0,-999.0,81,-99.99,,,0.00,weatherlink.com 1.10,2013-07-19 01:39:00,
2013-07-18 21:55:00,73.2,67.0,30.15,NE,37,0.0,-999.0,82,-99.99,,,0.00,weatherlink.com 1.10,2013-07-19 01:55:00,
2013-07-18 22:10:00,73.3,68.0,30.16,NE,37,0.0,-999.0,83,-99.99,,,0.00,weatherlink.com 1.10,2013-07-19 02:10:00,
2013-07-18 22:25:00,73.2,68.0,30.16,NE,37,0.0,-999.0,83,-99.99,,,0.00,weatherlink.com 1.10,2013-07-19 02:25:00,
2013-07-18 22:40:00,72.9,68.0,30.17,NE,37,0.0,-999.0,83,-99.99,,,0.00,weatherlink.com 1.10,2013-07-19 02:40:00,
2013-07-18 22:55:00,72.4,67.0,30.17,NE,37,0.0,-999.0,83,-99.99,,,0.00,weatherlink.com 1.10,2013-07-19 02:55:00,
2013-07-18 23:10:00,72.2,67.0,30.17,NE,37,0.0,-999.0,84,-99.99,,,0.00,weatherlink.com 1.10,2013-07-19 03:10:00,
2013-07-18 23:25:00,71.9,67.0,30.17,NE,37,0.0,-999.0,84,-99.99,,,0.00,weatherlink.com 1.10,2013-07-19 03:25:00,
2013-07-18 23:40:00,71.9,67.0,30.17,NE,37,0.0,-999.0,84,-99.99,,,0.00,weatherlink.com 1.10,2013-07-19 03:40:00,
2013-07-18 23:55:00,71.7,67.0,30.17,NE,37,0.0,-999.0,84,-99.99,,,0.00,weatherlink.com 1.10,2013-07-19 03:55:00,